Back to Top

Language: 

My Weather Underground Personal Weather Station Historical Data with Graphs...

Delerius Weather Station Historical Data
Daily Summary for December 26, 2017 Units:  English    Metric   Both
« Previous Day
Next Day »
Daily Weekly Monthly Yearly Custom
  High: Low: Average:
Temperature: 43.0 °F 36.0 °F 38.7 °F
Dew Point: 38.0 °F 33.9 °F 35.7 °F
Humidity: 94 % 77 % 89 %
Wind Speed: 18.0 mph 0.0 mph 8.4 mph
Wind Gust: 33.0 mph - -
Wind:- - SW
Pressure: 29.31 in 29.10 in -
Precipitation: 0.12 in    
Historical Graphs
 
 
Tabular Data for December 26, 2017
Time Temperature Dew Point Pressure Wind Wind Speed Wind Gust Humidity Rainfall Rate (Hourly) solar Conditions
00:02 40.5 °F 37.8 °F 29.25 in West 9.0 mph 16.0 mph 90 % 0.00 in 0 W/m2
00:03 40.5 °F 37.8 °F 29.25 in West 11.0 mph 20.0 mph 90 % 0.00 in 0 W/m2
00:05 40.5 °F 37.8 °F 29.25 in West 14.0 mph 20.0 mph 90 % 0.00 in 0 W/m2
00:08 40.5 °F 37.8 °F 29.25 in West 15.0 mph 27.0 mph 90 % 0.00 in 0 W/m2
00:11 40.5 °F 37.8 °F 29.25 in West 15.0 mph 25.0 mph 90 % 0.00 in 0 W/m2
00:15 40.5 °F 37.8 °F 29.25 in West 11.0 mph 19.0 mph 90 % 0.00 in 0 W/m2
00:18 40.5 °F 37.8 °F 29.26 in West 13.0 mph 21.0 mph 90 % 0.00 in 0 W/m2
00:23 40.5 °F 37.8 °F 29.26 in West 8.0 mph 14.0 mph 90 % 0.00 in 0 W/m2
00:26 40.5 °F 37.8 °F 29.26 in West 10.0 mph 14.0 mph 90 % 0.00 in 0 W/m2
00:31 40.3 °F 37.6 °F 29.26 in West 11.0 mph 19.0 mph 90 % 0.00 in 0 W/m2
00:34 40.3 °F 37.6 °F 29.26 in West 15.0 mph 24.0 mph 90 % 0.01 in 0 W/m2
00:39 40.1 °F 37.4 °F 29.26 in West 12.0 mph 19.0 mph 90 % 0.01 in 0 W/m2
00:44 39.7 °F 37.0 °F 29.26 in West 16.0 mph 24.0 mph 90 % 0.01 in 0 W/m2
00:45 39.7 °F 37.0 °F 29.26 in West 16.0 mph 22.0 mph 90 % 0.01 in 0 W/m2
00:50 39.6 °F 36.9 °F 29.26 in West 13.0 mph 20.0 mph 90 % 0.01 in 0 W/m2
00:52 39.4 °F 36.7 °F 29.26 in West 12.0 mph 18.0 mph 90 % 0.01 in 0 W/m2
00:53 39.4 °F 36.7 °F 29.26 in West 11.0 mph 18.0 mph 90 % 0.01 in 0 W/m2
00:58 39.4 °F 36.7 °F 29.25 in West 13.0 mph 22.0 mph 90 % 0.01 in 0 W/m2
01:03 39.4 °F 36.7 °F 29.25 in West 13.0 mph 20.0 mph 90 % 0.01 in 0 W/m2
01:07 39.4 °F 36.7 °F 29.25 in West 12.0 mph 20.0 mph 90 % 0.01 in 0 W/m2
01:09 39.4 °F 36.7 °F 29.25 in West 11.0 mph 15.0 mph 90 % 0.01 in 0 W/m2
01:13 39.2 °F 36.5 °F 29.25 in West 12.0 mph 20.0 mph 90 % 0.01 in 0 W/m2
01:17 39.4 °F 36.7 °F 29.25 in West 14.0 mph 22.0 mph 90 % 0.01 in 0 W/m2
01:21 39.4 °F 36.7 °F 29.25 in West 13.0 mph 23.0 mph 90 % 0.01 in 0 W/m2
01:23 39.4 °F 36.7 °F 29.25 in West 13.0 mph 19.0 mph 90 % 0.01 in 0 W/m2
01:28 39.6 °F 36.9 °F 29.26 in West 12.0 mph 19.0 mph 90 % 0.01 in 0 W/m2
01:29 39.6 °F 36.9 °F 29.26 in West 11.0 mph 18.0 mph 90 % 0.01 in 0 W/m2
01:32 39.6 °F 36.9 °F 29.26 in WSW 12.0 mph 22.0 mph 90 % 0.00 in 0 W/m2
01:37 39.2 °F 36.2 °F 29.26 in West 14.0 mph 20.0 mph 89 % 0.00 in 0 W/m2
01:39 39.0 °F 36.3 °F 29.26 in West 10.0 mph 18.0 mph 90 % 0.00 in 0 W/m2
01:40 39.0 °F 36.3 °F 29.26 in West 10.0 mph 20.0 mph 90 % 0.00 in 0 W/m2
01:45 38.5 °F 35.8 °F 29.26 in West 12.0 mph 18.0 mph 90 % 0.00 in 0 W/m2
01:46 38.5 °F 35.8 °F 29.26 in West 11.0 mph 18.0 mph 90 % 0.00 in 0 W/m2
01:51 38.1 °F 35.7 °F 29.26 in West 9.0 mph 13.0 mph 91 % 0.00 in 0 W/m2
01:56 38.1 °F 35.7 °F 29.26 in West 8.0 mph 14.0 mph 91 % 0.00 in 0 W/m2
01:57 38.1 °F 35.7 °F 29.26 in West 7.0 mph 10.0 mph 91 % 0.00 in 0 W/m2
01:58 38.1 °F 35.7 °F 29.26 in West 7.0 mph 11.0 mph 91 % 0.00 in 0 W/m2
02:02 38.1 °F 35.7 °F 29.26 in West 9.0 mph 13.0 mph 91 % 0.00 in 0 W/m2
02:05 38.1 °F 35.7 °F 29.26 in West 9.0 mph 14.0 mph 91 % 0.00 in 0 W/m2
02:10 38.1 °F 36.0 °F 29.26 in West 9.0 mph 18.0 mph 92 % 0.00 in 0 W/m2
02:15 38.1 °F 36.0 °F 29.26 in West 7.0 mph 11.0 mph 92 % 0.00 in 0 W/m2
02:20 38.3 °F 36.2 °F 29.26 in West 7.0 mph 12.0 mph 92 % 0.00 in 0 W/m2
02:21 38.3 °F 36.2 °F 29.26 in West 8.0 mph 12.0 mph 92 % 0.00 in 0 W/m2
02:29 38.5 °F 36.4 °F 29.26 in West 9.0 mph 16.0 mph 92 % 0.00 in 0 W/m2
02:34 38.7 °F 36.5 °F 29.26 in West 11.0 mph 18.0 mph 92 % 0.00 in 0 W/m2
02:36 38.7 °F 36.3 °F 29.26 in West 10.0 mph 14.0 mph 91 % 0.00 in 0 W/m2
02:41 38.8 °F 36.4 °F 29.25 in West 10.0 mph 15.0 mph 91 % 0.00 in 0 W/m2
02:43 38.8 °F 36.4 °F 29.26 in West 9.0 mph 14.0 mph 91 % 0.00 in 0 W/m2
02:48 39.0 °F 36.6 °F 29.25 in West 10.0 mph 15.0 mph 91 % 0.00 in 0 W/m2
02:51 39.0 °F 36.3 °F 29.26 in West 11.0 mph 19.0 mph 90 % 0.00 in 0 W/m2
02:52 39.0 °F 36.3 °F 29.25 in West 12.0 mph 23.0 mph 90 % 0.00 in 0 W/m2
02:57 39.0 °F 36.3 °F 29.26 in West 12.0 mph 22.0 mph 90 % 0.00 in 0 W/m2
02:58 39.0 °F 36.3 °F 29.26 in West 16.0 mph 22.0 mph 90 % 0.00 in 0 W/m2
03:01 39.2 °F 36.5 °F 29.26 in West 14.0 mph 22.0 mph 90 % 0.00 in 0 W/m2
03:06 39.0 °F 36.3 °F 29.26 in West 12.0 mph 16.0 mph 90 % 0.00 in 0 W/m2
03:09 39.0 °F 36.3 °F 29.26 in West 11.0 mph 18.0 mph 90 % 0.00 in 0 W/m2
03:13 39.0 °F 36.1 °F 29.26 in West 10.0 mph 18.0 mph 89 % 0.00 in 0 W/m2
03:18 38.8 °F 35.9 °F 29.26 in West 10.0 mph 18.0 mph 89 % 0.00 in 0 W/m2
03:23 38.8 °F 35.9 °F 29.26 in West 9.0 mph 16.0 mph 89 % 0.00 in 0 W/m2
03:26 38.8 °F 35.9 °F 29.25 in West 10.0 mph 16.0 mph 89 % 0.00 in 0 W/m2
03:31 38.8 °F 35.9 °F 29.26 in West 11.0 mph 22.0 mph 89 % 0.00 in 0 W/m2
03:35 38.8 °F 35.9 °F 29.26 in West 10.0 mph 18.0 mph 89 % 0.00 in 0 W/m2
03:37 38.8 °F 35.9 °F 29.26 in West 12.0 mph 20.0 mph 89 % 0.00 in 0 W/m2
03:42 39.2 °F 36.2 °F 29.26 in West 16.0 mph 25.0 mph 89 % 0.00 in 0 W/m2
03:43 39.4 °F 36.1 °F 29.26 in West 16.0 mph 23.0 mph 88 % 0.00 in 0 W/m2
03:48 39.6 °F 36.3 °F 29.25 in WSW 10.0 mph 14.0 mph 88 % 0.00 in 0 W/m2
03:49 39.6 °F 36.3 °F 29.25 in WSW 10.0 mph 14.0 mph 88 % 0.00 in 0 W/m2
03:54 39.6 °F 36.3 °F 29.25 in West 12.0 mph 21.0 mph 88 % 0.00 in 0 W/m2
03:59 39.6 °F 36.3 °F 29.25 in West 13.0 mph 21.0 mph 88 % 0.00 in 0 W/m2
04:00 39.6 °F 36.3 °F 29.25 in West 13.0 mph 21.0 mph 88 % 0.00 in 0 W/m2
04:05 39.4 °F 36.1 °F 29.26 in West 11.0 mph 20.0 mph 88 % 0.00 in 0 W/m2
04:09 39.4 °F 36.1 °F 29.26 in West 17.0 mph 33.0 mph 88 % 0.00 in 0 W/m2
04:11 39.4 °F 36.1 °F 29.26 in West 17.0 mph 27.0 mph 88 % 0.00 in 0 W/m2
04:16 39.0 °F 35.8 °F 29.25 in West 17.0 mph 27.0 mph 88 % 0.00 in 0 W/m2
04:19 39.0 °F 35.8 °F 29.25 in West 12.0 mph 19.0 mph 88 % 0.00 in 0 W/m2
04:22 38.8 °F 35.6 °F 29.25 in West 13.0 mph 25.0 mph 88 % 0.00 in 0 W/m2
04:24 38.8 °F 35.6 °F 29.25 in West 16.0 mph 21.0 mph 88 % 0.00 in 0 W/m2
04:28 38.8 °F 35.6 °F 29.25 in West 14.0 mph 22.0 mph 88 % 0.00 in 0 W/m2
04:33 38.8 °F 35.6 °F 29.25 in West 15.0 mph 21.0 mph 88 % 0.00 in 0 W/m2
04:37 39.0 °F 35.8 °F 29.25 in West 15.0 mph 21.0 mph 88 % 0.00 in 0 W/m2
04:40 39.0 °F 35.5 °F 29.25 in West 13.0 mph 22.0 mph 87 % 0.00 in 0 W/m2
04:45 39.0 °F 35.5 °F 29.25 in West 12.0 mph 16.0 mph 87 % 0.00 in 0 W/m2
04:46 39.0 °F 35.5 °F 29.25 in West 13.0 mph 19.0 mph 87 % 0.00 in 0 W/m2
04:51 39.0 °F 35.5 °F 29.25 in West 14.0 mph 25.0 mph 87 % 0.00 in 0 W/m2
04:53 39.0 °F 35.5 °F 29.25 in West 14.0 mph 25.0 mph 87 % 0.00 in 0 W/m2
04:55 39.2 °F 35.7 °F 29.25 in West 16.0 mph 25.0 mph 87 % 0.00 in 0 W/m2
04:59 39.4 °F 35.5 °F 29.25 in West 14.0 mph 25.0 mph 86 % 0.00 in 0 W/m2
05:02 39.4 °F 35.5 °F 29.25 in West 14.0 mph 23.0 mph 86 % 0.00 in 0 W/m2
05:05 39.4 °F 35.5 °F 29.25 in West 11.0 mph 20.0 mph 86 % 0.00 in 0 W/m2
05:11 39.2 °F 35.4 °F 29.25 in West 15.0 mph 24.0 mph 86 % 0.00 in 0 W/m2
05:12 39.4 °F 35.5 °F 29.25 in West 15.0 mph 24.0 mph 86 % 0.00 in 0 W/m2
05:16 39.4 °F 35.5 °F 29.25 in West 17.0 mph 25.0 mph 86 % 0.00 in 0 W/m2
05:21 39.4 °F 35.5 °F 29.25 in West 16.0 mph 26.0 mph 86 % 0.00 in 0 W/m2
05:23 39.4 °F 35.5 °F 29.25 in West 16.0 mph 26.0 mph 86 % 0.00 in 0 W/m2
05:28 39.4 °F 35.5 °F 29.25 in West 17.0 mph 23.0 mph 86 % 0.00 in 0 W/m2
05:30 39.4 °F 35.5 °F 29.25 in West 16.0 mph 23.0 mph 86 % 0.00 in 0 W/m2
05:31 39.4 °F 35.5 °F 29.25 in West 15.0 mph 23.0 mph 86 % 0.00 in 0 W/m2
05:37 39.2 °F 35.4 °F 29.26 in West 15.0 mph 26.0 mph 86 % 0.00 in 0 W/m2
05:41 39.4 °F 35.8 °F 29.26 in West 17.0 mph 26.0 mph 87 % 0.00 in 0 W/m2
05:46 39.2 °F 35.9 °F 29.27 in West 17.0 mph 29.0 mph 88 % 0.00 in 0 W/m2
05:47 39.2 °F 35.9 °F 29.27 in West 18.0 mph 29.0 mph 88 % 0.00 in 0 W/m2
05:49 39.0 °F 35.8 °F 29.27 in West 18.0 mph 28.0 mph 88 % 0.00 in 0 W/m2
05:52 39.0 °F 36.1 °F 29.27 in West 16.0 mph 22.0 mph 89 % 0.00 in 0 W/m2
05:55 38.8 °F 35.9 °F 29.27 in West 14.0 mph 21.0 mph 89 % 0.00 in 0 W/m2
06:00 38.7 °F 36.0 °F 29.28 in West 12.0 mph 19.0 mph 90 % 0.00 in 0 W/m2
06:01 38.7 °F 36.0 °F 29.28 in West 12.0 mph 19.0 mph 90 % 0.00 in 0 W/m2
06:06 38.7 °F 36.0 °F 29.28 in West 12.0 mph 19.0 mph 90 % 0.00 in 0 W/m2
06:08 38.7 °F 36.0 °F 29.28 in West 11.0 mph 15.0 mph 90 % 0.00 in 0 W/m2
06:12 38.7 °F 36.0 °F 29.28 in West 11.0 mph 18.0 mph 90 % 0.00 in 0 W/m2
06:14 38.7 °F 36.0 °F 29.28 in West 11.0 mph 16.0 mph 90 % 0.00 in 0 W/m2
06:19 38.5 °F 35.8 °F 29.28 in West 11.0 mph 16.0 mph 90 % 0.00 in 0 W/m2
06:22 38.5 °F 35.8 °F 29.28 in West 10.0 mph 15.0 mph 90 % 0.00 in 0 W/m2
06:25 38.3 °F 35.9 °F 29.28 in West 12.0 mph 19.0 mph 91 % 0.00 in 0 W/m2
06:29 38.1 °F 35.7 °F 29.28 in West 14.0 mph 21.0 mph 91 % 0.00 in 0 W/m2
06:31 38.1 °F 35.7 °F 29.28 in West 13.0 mph 19.0 mph 91 % 0.00 in 0 W/m2
06:36 38.1 °F 35.7 °F 29.28 in West 12.0 mph 22.0 mph 91 % 0.01 in 0 W/m2
06:41 38.1 °F 35.7 °F 29.29 in West 16.0 mph 24.0 mph 91 % 0.01 in 0 W/m2
06:42 38.1 °F 35.7 °F 29.29 in West 16.0 mph 24.0 mph 91 % 0.01 in 0 W/m2
06:46 38.1 °F 35.7 °F 29.29 in West 13.0 mph 21.0 mph 91 % 0.01 in 0 W/m2
06:51 37.9 °F 35.5 °F 29.28 in WSW 14.0 mph 22.0 mph 91 % 0.01 in 0 W/m2
06:52 37.9 °F 35.5 °F 29.28 in West 13.0 mph 20.0 mph 91 % 0.02 in 0 W/m2
06:57 37.8 °F 35.4 °F 29.28 in WSW 15.0 mph 22.0 mph 91 % 0.02 in 0 W/m2
07:02 37.8 °F 35.4 °F 29.29 in WSW 13.0 mph 19.0 mph 91 % 0.02 in 0 W/m2
07:07 37.9 °F 35.5 °F 29.29 in WSW 13.0 mph 22.0 mph 91 % 0.02 in 0 W/m2
07:09 37.9 °F 35.5 °F 29.29 in West 16.0 mph 22.0 mph 91 % 0.02 in 0 W/m2
07:14 38.1 °F 35.7 °F 29.29 in WSW 16.0 mph 26.0 mph 91 % 0.02 in 0 W/m2
07:15 38.1 °F 35.7 °F 29.29 in WSW 16.0 mph 26.0 mph 91 % 0.02 in 0 W/m2
07:20 37.9 °F 35.5 °F 29.28 in WSW 15.0 mph 23.0 mph 91 % 0.02 in 0 W/m2
07:25 37.8 °F 35.4 °F 29.29 in WSW 10.0 mph 16.0 mph 91 % 0.02 in 0 W/m2
07:26 37.8 °F 35.4 °F 29.29 in WSW 10.0 mph 15.0 mph 91 % 0.02 in 0 W/m2
07:27 37.8 °F 35.4 °F 29.29 in WSW 11.0 mph 19.0 mph 91 % 0.02 in 0 W/m2
07:32 37.8 °F 35.4 °F 29.29 in WSW 14.0 mph 23.0 mph 91 % 0.01 in 0 W/m2
07:34 37.8 °F 35.4 °F 29.29 in WSW 11.0 mph 19.0 mph 91 % 0.01 in 0 W/m2
07:37 37.9 °F 35.5 °F 29.29 in West 16.0 mph 24.0 mph 91 % 0.01 in 0 W/m2
07:39 37.9 °F 35.5 °F 29.30 in West 15.0 mph 24.0 mph 91 % 0.01 in 0 W/m2
07:44 37.9 °F 35.5 °F 29.30 in West 17.0 mph 28.0 mph 91 % 0.02 in 0 W/m2
07:49 37.4 °F 34.7 °F 29.30 in WSW 16.0 mph 24.0 mph 90 % 0.02 in 0 W/m2
07:51 37.2 °F 34.8 °F 29.30 in West 13.0 mph 24.0 mph 91 % 0.02 in 0 W/m2
07:54 37.0 °F 34.7 °F 29.30 in West 11.0 mph 15.0 mph 91 % 0.02 in 0 W/m2
07:59 37.0 °F 34.9 °F 29.30 in WSW 12.0 mph 15.0 mph 92 % 0.02 in 0 W/m2
08:00 37.0 °F 34.9 °F 29.30 in WSW 12.0 mph 15.0 mph 92 % 0.02 in 0 W/m2
08:02 37.0 °F 34.9 °F 29.30 in WSW 11.0 mph 15.0 mph 92 % 0.03 in 0 W/m2
08:07 37.0 °F 34.9 °F 29.30 in WSW 9.0 mph 15.0 mph 92 % 0.03 in 0 W/m2
08:08 37.0 °F 34.9 °F 29.30 in WSW 10.0 mph 16.0 mph 92 % 0.03 in 0 W/m2
08:13 37.0 °F 34.9 °F 29.30 in WSW 11.0 mph 21.0 mph 92 % 0.03 in 0 W/m2
08:17 37.0 °F 34.9 °F 29.30 in WSW 13.0 mph 24.0 mph 92 % 0.03 in 0 W/m2
08:19 37.0 °F 34.9 °F 29.30 in WSW 10.0 mph 16.0 mph 92 % 0.03 in 0 W/m2
08:24 37.0 °F 34.9 °F 29.30 in WSW 15.0 mph 27.0 mph 92 % 0.03 in 0 W/m2
08:29 37.2 °F 35.1 °F 29.30 in WSW 13.0 mph 23.0 mph 92 % 0.05 in 0 W/m2
08:33 37.0 °F 34.9 °F 29.29 in WSW 11.0 mph 18.0 mph 92 % 0.05 in 5 W/m2
08:35 36.9 °F 34.8 °F 29.30 in WSW 10.0 mph 15.0 mph 92 % 0.05 in 5 W/m2
08:40 36.9 °F 34.8 °F 29.30 in WSW 11.0 mph 15.0 mph 92 % 0.05 in 7 W/m2
08:42 36.9 °F 34.8 °F 29.30 in WSW 11.0 mph 15.0 mph 92 % 0.05 in 11 W/m2
08:47 37.0 °F 35.2 °F 29.30 in WSW 13.0 mph 21.0 mph 93 % 0.03 in 5 W/m2
08:48 37.0 °F 35.2 °F 29.30 in WSW 12.0 mph 21.0 mph 93 % 0.04 in 5 W/m2
08:52 37.2 °F 35.4 °F 29.30 in WSW 11.0 mph 18.0 mph 93 % 0.04 in 12 W/m2
08:56 37.2 °F 35.4 °F 29.30 in WSW 13.0 mph 20.0 mph 93 % 0.05 in 23 W/m2
09:01 37.0 °F 35.2 °F 29.30 in WSW 12.0 mph 20.0 mph 93 % 0.04 in 26 W/m2
09:06 37.0 °F 35.2 °F 29.30 in WSW 10.0 mph 15.0 mph 93 % 0.04 in 30 W/m2
09:08 37.0 °F 35.2 °F 29.30 in WSW 13.0 mph 22.0 mph 93 % 0.05 in 35 W/m2
09:13 37.2 °F 35.4 °F 29.30 in West 9.0 mph 14.0 mph 93 % 0.05 in 102 W/m2
09:15 37.2 °F 35.4 °F 29.30 in West 10.0 mph 14.0 mph 93 % 0.05 in 109 W/m2
09:19 37.8 °F 35.9 °F 29.30 in WSW 9.0 mph 14.0 mph 93 % 0.05 in 81 W/m2
09:22 37.8 °F 35.9 °F 29.30 in West 10.0 mph 20.0 mph 93 % 0.05 in 72 W/m2
09:27 38.1 °F 36.3 °F 29.30 in WSW 7.0 mph 13.0 mph 93 % 0.04 in 42 W/m2
09:28 38.1 °F 36.3 °F 29.30 in WSW 9.0 mph 19.0 mph 93 % 0.04 in 54 W/m2
09:33 38.1 °F 36.0 °F 29.31 in West 12.0 mph 18.0 mph 92 % 0.03 in 47 W/m2
09:38 38.1 °F 36.0 °F 29.31 in WSW 12.0 mph 20.0 mph 92 % 0.03 in 26 W/m2
09:39 38.3 °F 36.2 °F 29.31 in WSW 12.0 mph 20.0 mph 92 % 0.03 in 26 W/m2
09:41 38.1 °F 35.7 °F 29.30 in WSW 13.0 mph 18.0 mph 91 % 0.03 in 28 W/m2
09:44 38.1 °F 35.7 °F 29.30 in WSW 12.0 mph 20.0 mph 91 % 0.03 in 28 W/m2
09:49 37.9 °F 35.5 °F 29.30 in WSW 13.0 mph 22.0 mph 91 % 0.02 in 77 W/m2
09:53 37.9 °F 35.5 °F 29.31 in WSW 11.0 mph 18.0 mph 91 % 0.02 in 162 W/m2
09:58 38.3 °F 36.2 °F 29.30 in WSW 12.0 mph 16.0 mph 92 % 0.02 in 102 W/m2
09:59 38.3 °F 36.2 °F 29.30 in WSW 13.0 mph 21.0 mph 92 % 0.01 in 63 W/m2
10:02 38.5 °F 36.4 °F 29.30 in WSW 12.0 mph 21.0 mph 92 % 0.01 in 67 W/m2
10:05 38.5 °F 36.1 °F 29.30 in WSW 15.0 mph 21.0 mph 91 % 0.01 in 86 W/m2
10:09 38.5 °F 36.1 °F 29.30 in WSW 13.0 mph 22.0 mph 91 % 0.00 in 162 W/m2
10:10 38.7 °F 36.3 °F 29.30 in WSW 12.0 mph 22.0 mph 91 % 0.00 in 167 W/m2
10:15 38.8 °F 36.4 °F 29.30 in WSW 17.0 mph 26.0 mph 91 % 0.00 in 121 W/m2
10:16 38.8 °F 36.4 °F 29.30 in WSW 16.0 mph 26.0 mph 91 % 0.00 in 121 W/m2
10:18 38.7 °F 36.3 °F 29.30 in WSW 14.0 mph 21.0 mph 91 % 0.00 in 26 W/m2
10:21 38.5 °F 35.8 °F 29.30 in WSW 17.0 mph 26.0 mph 90 % 0.00 in 33 W/m2
10:23 38.5 °F 35.8 °F 29.30 in WSW 15.0 mph 23.0 mph 90 % 0.00 in 39 W/m2
10:25 38.3 °F 35.6 °F 29.30 in WSW 15.0 mph 23.0 mph 90 % 0.00 in 63 W/m2
10:30 38.1 °F 35.7 °F 29.30 in WSW 12.0 mph 21.0 mph 91 % 0.00 in 128 W/m2
10:35 38.1 °F 35.7 °F 29.30 in WSW 12.0 mph 20.0 mph 91 % 0.00 in 100 W/m2
10:36 38.1 °F 35.7 °F 29.30 in WSW 11.0 mph 20.0 mph 91 % 0.00 in 100 W/m2
10:39 38.1 °F 35.7 °F 29.30 in WSW 11.0 mph 18.0 mph 91 % 0.00 in 216 W/m2
10:41 38.3 °F 35.9 °F 29.30 in West 13.0 mph 22.0 mph 91 % 0.00 in 216 W/m2
10:44 38.5 °F 36.1 °F 29.30 in West 12.0 mph 19.0 mph 91 % 0.00 in 209 W/m2
10:49 38.8 °F 36.4 °F 29.30 in West 11.0 mph 19.0 mph 91 % 0.00 in 213 W/m2
10:50 39.0 °F 36.6 °F 29.30 in West 11.0 mph 16.0 mph 91 % 0.00 in 223 W/m2
10:55 39.7 °F 37.3 °F 29.30 in West 14.0 mph 22.0 mph 91 % 0.00 in 297 W/m2
10:57 39.9 °F 37.2 °F 29.30 in West 14.0 mph 22.0 mph 90 % 0.00 in 144 W/m2
10:59 39.9 °F 37.2 °F 29.30 in West 17.0 mph 25.0 mph 90 % 0.01 in 74 W/m2
11:02 39.7 °F 36.8 °F 29.29 in West 12.0 mph 21.0 mph 89 % 0.01 in 100 W/m2
11:07 39.6 °F 36.9 °F 29.29 in West 12.0 mph 20.0 mph 90 % 0.01 in 185 W/m2
11:08 39.6 °F 36.9 °F 29.29 in West 13.0 mph 22.0 mph 90 % 0.01 in 209 W/m2
11:14 39.7 °F 37.0 °F 29.29 in West 13.0 mph 22.0 mph 90 % 0.01 in 207 W/m2
11:16 39.7 °F 37.0 °F 29.29 in West 11.0 mph 18.0 mph 90 % 0.01 in 185 W/m2
11:21 39.9 °F 37.2 °F 29.29 in West 12.0 mph 18.0 mph 90 % 0.01 in 188 W/m2
11:23 39.9 °F 37.2 °F 29.29 in West 12.0 mph 20.0 mph 90 % 0.01 in 225 W/m2
11:28 40.3 °F 37.3 °F 29.29 in West 11.0 mph 21.0 mph 89 % 0.01 in 218 W/m2
11:29 40.3 °F 37.3 °F 29.29 in West 13.0 mph 23.0 mph 89 % 0.01 in 169 W/m2
11:34 40.5 °F 37.5 °F 29.29 in West 13.0 mph 21.0 mph 89 % 0.01 in 232 W/m2
11:35 40.5 °F 37.5 °F 29.29 in West 13.0 mph 21.0 mph 89 % 0.01 in 241 W/m2
11:40 40.8 °F 37.5 °F 29.29 in WSW 11.0 mph 19.0 mph 88 % 0.01 in 223 W/m2
11:44 41.2 °F 37.9 °F 29.29 in West 10.0 mph 15.0 mph 88 % 0.01 in 243 W/m2
11:49 41.4 °F 37.8 °F 29.29 in West 12.0 mph 19.0 mph 87 % 0.01 in 246 W/m2
11:51 41.5 °F 38.0 °F 29.29 in West 11.0 mph 15.0 mph 87 % 0.01 in 250 W/m2
11:56 41.7 °F 37.5 °F 29.29 in West 12.0 mph 20.0 mph 85 % 0.01 in 251 W/m2
12:00 41.9 °F 37.7 °F 29.29 in West 9.0 mph 15.0 mph 85 % 0.00 in 253 W/m2
12:03 41.9 °F 37.7 °F 29.29 in West 12.0 mph 21.0 mph 85 % 0.00 in 246 W/m2
12:05 42.1 °F 37.6 °F 29.29 in West 12.0 mph 19.0 mph 84 % 0.00 in 223 W/m2
12:09 42.1 °F 37.9 °F 29.29 in West 12.0 mph 22.0 mph 85 % 0.00 in 234 W/m2
12:11 42.1 °F 37.6 °F 29.29 in West 13.0 mph 22.0 mph 84 % 0.00 in 225 W/m2
12:14 41.9 °F 37.4 °F 29.29 in West 10.0 mph 16.0 mph 84 % 0.00 in 95 W/m2
12:19 41.7 °F 37.2 °F 29.29 in West 11.0 mph 16.0 mph 84 % 0.00 in 144 W/m2
12:20 41.7 °F 37.2 °F 29.29 in West 11.0 mph 23.0 mph 84 % 0.00 in 155 W/m2
12:25 41.5 °F 37.1 °F 29.29 in WSW 11.0 mph 16.0 mph 84 % 0.00 in 197 W/m2
12:26 41.7 °F 37.2 °F 29.29 in West 11.0 mph 15.0 mph 84 % 0.00 in 197 W/m2
12:31 41.7 °F 36.9 °F 29.29 in West 10.0 mph 20.0 mph 83 % 0.00 in 218 W/m2
12:32 41.7 °F 36.9 °F 29.29 in West 9.0 mph 14.0 mph 83 % 0.00 in 207 W/m2
12:34 41.7 °F 36.9 °F 29.29 in West 10.0 mph 18.0 mph 83 % 0.00 in 229 W/m2
12:39 42.1 °F 37.3 °F 29.29 in WSW 9.0 mph 14.0 mph 83 % 0.00 in 239 W/m2
12:44 42.3 °F 37.5 °F 29.29 in West 9.0 mph 14.0 mph 83 % 0.00 in 239 W/m2
12:45 42.3 °F 37.5 °F 29.29 in West 8.0 mph 13.0 mph 83 % 0.00 in 239 W/m2
12:50 42.6 °F 37.5 °F 29.29 in West 11.0 mph 15.0 mph 82 % 0.00 in 153 W/m2
12:52 42.6 °F 37.5 °F 29.28 in West 8.0 mph 15.0 mph 82 % 0.00 in 144 W/m2
12:56 42.4 °F 37.0 °F 29.28 in WSW 10.0 mph 15.0 mph 81 % 0.00 in 93 W/m2
13:01 42.3 °F 36.8 °F 29.28 in WSW 10.0 mph 15.0 mph 81 % 0.00 in 230 W/m2
13:03 42.3 °F 36.8 °F 29.28 in WSW 11.0 mph 16.0 mph 81 % 0.00 in 229 W/m2
13:08 42.3 °F 36.8 °F 29.28 in WSW 11.0 mph 15.0 mph 81 % 0.00 in 214 W/m2
13:13 42.4 °F 37.0 °F 29.27 in WSW 10.0 mph 16.0 mph 81 % 0.00 in 241 W/m2
13:17 42.6 °F 37.2 °F 29.28 in West 12.0 mph 19.0 mph 81 % 0.00 in 221 W/m2
13:22 42.6 °F 36.9 °F 29.27 in WSW 10.0 mph 16.0 mph 80 % 0.00 in 209 W/m2
13:23 42.6 °F 36.9 °F 29.27 in WSW 9.0 mph 13.0 mph 80 % 0.00 in 206 W/m2
13:28 42.8 °F 37.1 °F 29.27 in WSW 10.0 mph 14.0 mph 80 % 0.00 in 200 W/m2
13:29 42.8 °F 36.7 °F 29.27 in WSW 10.0 mph 15.0 mph 79 % 0.00 in 200 W/m2
13:31 42.8 °F 36.7 °F 29.27 in WSW 10.0 mph 15.0 mph 79 % 0.00 in 202 W/m2
13:36 43.0 °F 36.9 °F 29.27 in WSW 8.0 mph 15.0 mph 79 % 0.00 in 169 W/m2
13:41 42.8 °F 36.7 °F 29.27 in WSW 7.0 mph 13.0 mph 79 % 0.00 in 81 W/m2
13:44 42.6 °F 36.6 °F 29.27 in WSW 10.0 mph 16.0 mph 79 % 0.00 in 185 W/m2
13:47 42.6 °F 36.6 °F 29.27 in SW 10.0 mph 15.0 mph 79 % 0.00 in 181 W/m2
13:52 42.6 °F 36.6 °F 29.27 in SW 7.0 mph 11.0 mph 79 % 0.00 in 172 W/m2
13:53 42.8 °F 36.7 °F 29.27 in SW 6.0 mph 11.0 mph 79 % 0.00 in 176 W/m2
13:58 43.0 °F 36.9 °F 29.27 in SW 9.0 mph 13.0 mph 79 % 0.00 in 199 W/m2
13:59 43.0 °F 36.9 °F 29.27 in SW 9.0 mph 13.0 mph 79 % 0.00 in 199 W/m2
14:03 43.0 °F 36.6 °F 29.27 in WSW 10.0 mph 14.0 mph 78 % 0.00 in 165 W/m2
14:05 43.0 °F 36.6 °F 29.27 in WSW 11.0 mph 14.0 mph 78 % 0.00 in 156 W/m2
14:10 42.6 °F 35.9 °F 29.27 in WSW 10.0 mph 20.0 mph 77 % 0.00 in 30 W/m2
14:15 42.3 °F 35.9 °F 29.27 in WSW 7.0 mph 11.0 mph 78 % 0.00 in 25 W/m2
14:16 42.3 °F 35.9 °F 29.27 in WSW 7.0 mph 11.0 mph 78 % 0.00 in 28 W/m2
14:21 42.1 °F 36.0 °F 29.27 in SW 8.0 mph 13.0 mph 79 % 0.00 in 151 W/m2
14:25 42.1 °F 36.0 °F 29.27 in SW 7.0 mph 10.0 mph 79 % 0.00 in 60 W/m2
14:26 42.1 °F 36.0 °F 29.27 in WSW 7.0 mph 11.0 mph 79 % 0.00 in 60 W/m2
14:31 42.1 °F 36.0 °F 29.27 in WSW 8.0 mph 14.0 mph 79 % 0.00 in 90 W/m2
14:34 42.1 °F 36.0 °F 29.26 in WSW 7.0 mph 11.0 mph 79 % 0.00 in 47 W/m2
14:36 42.1 °F 36.0 °F 29.26 in WSW 8.0 mph 14.0 mph 79 % 0.00 in 105 W/m2
14:39 42.1 °F 36.0 °F 29.26 in WSW 9.0 mph 14.0 mph 79 % 0.00 in 33 W/m2
14:41 42.1 °F 35.7 °F 29.26 in WSW 9.0 mph 19.0 mph 78 % 0.00 in 28 W/m2
14:45 41.9 °F 35.5 °F 29.26 in WSW 12.0 mph 20.0 mph 78 % 0.00 in 26 W/m2
14:47 41.7 °F 35.4 °F 29.26 in WSW 11.0 mph 20.0 mph 78 % 0.00 in 69 W/m2
14:51 41.7 °F 35.4 °F 29.26 in WSW 11.0 mph 19.0 mph 78 % 0.00 in 28 W/m2
14:52 41.5 °F 35.2 °F 29.26 in WSW 7.0 mph 12.0 mph 78 % 0.00 in 26 W/m2
14:57 41.5 °F 35.5 °F 29.26 in WSW 8.0 mph 12.0 mph 79 % 0.00 in 39 W/m2
14:59 41.4 °F 35.3 °F 29.26 in WSW 7.0 mph 11.0 mph 79 % 0.00 in 40 W/m2
15:04 41.4 °F 35.7 °F 29.26 in WSW 4.0 mph 7.0 mph 80 % 0.00 in 19 W/m2
15:05 41.4 °F 35.7 °F 29.26 in WSW 4.0 mph 7.0 mph 80 % 0.00 in 18 W/m2
15:07 41.2 °F 35.5 °F 29.26 in WSW 1.0 mph 5.0 mph 80 % 0.00 in 16 W/m2
15:12 41.2 °F 35.5 °F 29.26 in WSW 1.0 mph 4.0 mph 80 % 0.00 in 14 W/m2
15:14 41.0 °F 35.3 °F 29.26 in Calm   4.0 mph 80 % 0.00 in 12 W/m2
15:18 40.8 °F 35.1 °F 29.26 in Calm   1.0 mph 80 % 0.00 in 11 W/m2
15:20 40.6 °F 35.0 °F 29.26 in Calm   1.0 mph 80 % 0.00 in 11 W/m2
15:25 40.5 °F 35.1 °F 29.26 in East 3.0 mph 5.0 mph 81 % 0.00 in 9 W/m2
15:30 40.3 °F 35.2 °F 29.27 in East 2.0 mph 4.0 mph 82 % 0.00 in 7 W/m2
15:33 39.9 °F 34.9 °F 29.26 in Calm   1.0 mph 82 % 0.00 in 7 W/m2
15:38 39.7 °F 35.0 °F 29.26 in Calm     83 % 0.00 in 5 W/m2
15:41 39.7 °F 35.0 °F 29.26 in WSW 2.0 mph 6.0 mph 83 % 0.00 in 5 W/m2
15:46 39.6 °F 34.8 °F 29.26 in WSW 1.0 mph 5.0 mph 83 % 0.00 in 0 W/m2
15:47 39.6 °F 34.8 °F 29.26 in WSW 2.0 mph 5.0 mph 83 % 0.00 in 0 W/m2
15:52 39.6 °F 34.8 °F 29.25 in WSW 6.0 mph 10.0 mph 83 % 0.00 in 0 W/m2
15:54 39.6 °F 34.8 °F 29.25 in WSW 6.0 mph 9.0 mph 83 % 0.00 in 0 W/m2
15:58 39.7 °F 35.0 °F 29.25 in WSW 3.0 mph 8.0 mph 83 % 0.00 in 0 W/m2
16:03 39.6 °F 34.8 °F 29.25 in West 1.0 mph 4.0 mph 83 % 0.00 in 0 W/m2
16:05 39.6 °F 34.8 °F 29.25 in Calm   3.0 mph 83 % 0.00 in 0 W/m2
16:09 39.4 °F 34.6 °F 29.26 in SE 3.0 mph 6.0 mph 83 % 0.00 in 0 W/m2
16:14 39.0 °F 34.3 °F 29.26 in East 4.0 mph 6.0 mph 83 % 0.00 in 0 W/m2
16:15 39.0 °F 34.6 °F 29.26 in East 2.0 mph 5.0 mph 84 % 0.00 in 0 W/m2
16:20 38.8 °F 34.4 °F 29.25 in ENE 3.0 mph 6.0 mph 84 % 0.00 in 0 W/m2
16:21 38.8 °F 34.4 °F 29.25 in ENE 3.0 mph 6.0 mph 84 % 0.00 in 0 W/m2
16:25 38.8 °F 34.7 °F 29.25 in East 1.0 mph 5.0 mph 85 % 0.00 in 0 W/m2
16:31 38.7 °F 34.5 °F 29.25 in Calm   1.0 mph 85 % 0.00 in 0 W/m2
16:33 38.7 °F 34.5 °F 29.25 in Calm     85 % 0.00 in 0 W/m2
16:38 38.7 °F 34.5 °F 29.25 in Calm     85 % 0.00 in 0 W/m2
16:42 38.7 °F 34.5 °F 29.25 in Calm     85 % 0.00 in 0 W/m2
16:47 38.5 °F 34.7 °F 29.25 in Calm   2.0 mph 86 % 0.00 in 0 W/m2
16:52 38.5 °F 34.7 °F 29.25 in Calm   2.0 mph 86 % 0.00 in 0 W/m2
16:56 38.5 °F 34.7 °F 29.24 in East 1.0 mph 4.0 mph 86 % 0.00 in 0 W/m2
17:01 38.5 °F 34.9 °F 29.24 in Calm     87 % 0.00 in 0 W/m2
17:06 38.3 °F 34.8 °F 29.24 in Calm     87 % 0.00 in 0 W/m2
17:07 38.3 °F 34.8 °F 29.24 in Calm     87 % 0.00 in 0 W/m2
17:12 38.1 °F 34.6 °F 29.23 in Calm     87 % 0.00 in 0 W/m2
17:14 38.1 °F 34.6 °F 29.23 in Calm     87 % 0.00 in 0 W/m2
17:19 37.9 °F 34.7 °F 29.24 in Calm     88 % 0.00 in 0 W/m2
17:24 37.9 °F 34.7 °F 29.24 in ESE 1.0 mph 4.0 mph 88 % 0.00 in 0 W/m2
17:27 37.9 °F 34.7 °F 29.23 in ESE 1.0 mph 2.0 mph 88 % 0.00 in 0 W/m2
17:33 37.9 °F 35.0 °F 29.23 in Calm     89 % 0.00 in 0 W/m2
17:38 37.8 °F 34.8 °F 29.23 in Calm   1.0 mph 89 % 0.00 in 0 W/m2
17:39 37.8 °F 34.8 °F 29.23 in Calm     89 % 0.00 in 0 W/m2
17:44 37.6 °F 34.6 °F 29.22 in Calm     89 % 0.00 in 0 W/m2
17:47 37.6 °F 34.6 °F 29.22 in Calm     89 % 0.00 in 0 W/m2
17:48 37.6 °F 34.6 °F 29.22 in Calm     89 % 0.00 in 0 W/m2
17:53 37.4 °F 34.5 °F 29.22 in Calm     89 % 0.00 in 0 W/m2
17:58 37.2 °F 34.3 °F 29.22 in Calm     89 % 0.00 in 0 W/m2
18:03 37.0 °F 34.1 °F 29.22 in Calm     89 % 0.00 in 0 W/m2
18:07 37.0 °F 34.4 °F 29.22 in ESE 1.0 mph 4.0 mph 90 % 0.00 in 0 W/m2
18:12 37.0 °F 34.4 °F 29.22 in Calm   1.0 mph 90 % 0.00 in 0 W/m2
18:14 37.0 °F 34.4 °F 29.22 in Calm   1.0 mph 90 % 0.00 in 0 W/m2
18:18 36.9 °F 34.2 °F 29.22 in Calm     90 % 0.00 in 0 W/m2
18:23 36.9 °F 34.5 °F 29.22 in ESE 2.0 mph 4.0 mph 91 % 0.00 in 0 W/m2
18:25 36.9 °F 34.5 °F 29.22 in Calm   2.0 mph 91 % 0.00 in 0 W/m2
18:27 36.9 °F 34.5 °F 29.22 in Calm     91 % 0.00 in 0 W/m2
18:32 36.9 °F 34.5 °F 29.21 in Calm     91 % 0.00 in 0 W/m2
18:37 36.7 °F 34.3 °F 29.21 in Calm     91 % 0.00 in 0 W/m2
18:41 36.7 °F 34.3 °F 29.21 in Calm     91 % 0.00 in 0 W/m2
18:44 36.7 °F 34.3 °F 29.21 in Calm     91 % 0.00 in 0 W/m2
18:49 36.5 °F 34.1 °F 29.21 in Calm     91 % 0.00 in 0 W/m2
18:54 36.3 °F 33.9 °F 29.21 in Calm     91 % 0.00 in 0 W/m2
18:59 36.3 °F 33.9 °F 29.20 in Calm     91 % 0.00 in 0 W/m2
19:03 36.3 °F 34.2 °F 29.20 in Calm     92 % 0.00 in 0 W/m2
19:06 36.3 °F 34.2 °F 29.20 in Calm     92 % 0.00 in 0 W/m2
19:09 36.3 °F 34.2 °F 29.20 in Calm     92 % 0.00 in 0 W/m2
19:10 36.3 °F 34.2 °F 29.20 in Calm     92 % 0.00 in 0 W/m2
19:15 36.3 °F 34.2 °F 29.20 in Calm     92 % 0.00 in 0 W/m2
19:20 36.3 °F 34.2 °F 29.20 in Calm     92 % 0.00 in 0 W/m2
19:21 36.3 °F 34.2 °F 29.20 in Calm     92 % 0.00 in 0 W/m2
19:26 36.1 °F 34.0 °F 29.20 in Calm     92 % 0.00 in 0 W/m2
19:30 36.1 °F 34.0 °F 29.20 in Calm     92 % 0.00 in 0 W/m2
19:35 36.3 °F 34.5 °F 29.19 in Calm     93 % 0.00 in 0 W/m2
19:36 36.3 °F 34.5 °F 29.19 in Calm     93 % 0.00 in 0 W/m2
19:41 36.3 °F 34.5 °F 29.19 in Calm     93 % 0.00 in 0 W/m2
19:42 36.3 °F 34.5 °F 29.19 in Calm     93 % 0.00 in 0 W/m2
19:43 36.3 °F 34.5 °F 29.19 in Calm     93 % 0.00 in 0 W/m2
19:47 36.1 °F 34.3 °F 29.19 in Calm     93 % 0.00 in 0 W/m2
19:50 36.1 °F 34.3 °F 29.19 in Calm     93 % 0.00 in 0 W/m2
19:54 36.1 °F 34.3 °F 29.18 in Calm     93 % 0.00 in 0 W/m2
19:59 36.1 °F 34.3 °F 29.18 in Calm     93 % 0.00 in 0 W/m2
20:00 36.1 °F 34.3 °F 29.18 in Calm     93 % 0.00 in 0 W/m2
20:04 36.1 °F 34.0 °F 29.18 in Calm     92 % 0.00 in 0 W/m2
20:07 36.0 °F 34.1 °F 29.18 in Calm     93 % 0.00 in 0 W/m2
20:12 36.0 °F 34.1 °F 29.18 in Calm     93 % 0.00 in 0 W/m2
20:16 36.0 °F 34.1 °F 29.18 in Calm     93 % 0.00 in 0 W/m2
20:18 36.0 °F 34.1 °F 29.18 in Calm     93 % 0.00 in 0 W/m2
20:23 36.0 °F 34.1 °F 29.17 in Calm     93 % 0.00 in 0 W/m2
20:27 36.0 °F 34.1 °F 29.17 in Calm     93 % 0.00 in 0 W/m2
20:29 36.0 °F 34.1 °F 29.17 in Calm   2.0 mph 93 % 0.00 in 0 W/m2
20:34 36.0 °F 34.1 °F 29.17 in Calm     93 % 0.00 in 0 W/m2
20:36 36.1 °F 34.6 °F 29.17 in Calm     94 % 0.00 in 0 W/m2
20:41 36.1 °F 34.3 °F 29.16 in Calm     93 % 0.00 in 0 W/m2
20:43 36.1 °F 34.3 °F 29.16 in Calm     93 % 0.00 in 0 W/m2
20:48 36.0 °F 34.1 °F 29.16 in Calm     93 % 0.00 in 0 W/m2
20:49 36.0 °F 34.1 °F 29.16 in Calm     93 % 0.00 in 0 W/m2
20:54 36.0 °F 34.1 °F 29.16 in Calm   1.0 mph 93 % 0.00 in 0 W/m2
20:59 36.0 °F 34.4 °F 29.16 in Calm     94 % 0.00 in 0 W/m2
21:00 36.0 °F 34.1 °F 29.15 in Calm     93 % 0.00 in 0 W/m2
21:02 36.0 °F 34.1 °F 29.15 in Calm     93 % 0.00 in 0 W/m2
21:05 36.0 °F 34.1 °F 29.16 in Calm     93 % 0.00 in 0 W/m2
21:08 36.0 °F 34.1 °F 29.15 in Calm     93 % 0.00 in 0 W/m2
21:13 36.0 °F 34.4 °F 29.15 in NNE 3.0 mph 6.0 mph 94 % 0.00 in 0 W/m2
21:18 36.3 °F 34.8 °F 29.15 in NNE 3.0 mph 8.0 mph 94 % 0.00 in 0 W/m2
21:20 36.3 °F 34.8 °F 29.15 in NNE 1.0 mph 4.0 mph 94 % 0.00 in 0 W/m2
21:21 36.3 °F 34.8 °F 29.15 in NNE 2.0 mph 5.0 mph 94 % 0.00 in 0 W/m2
21:26 36.5 °F 34.9 °F 29.15 in NNE 5.0 mph 8.0 mph 94 % 0.00 in 0 W/m2
21:27 36.5 °F 34.9 °F 29.15 in NNE 5.0 mph 8.0 mph 94 % 0.00 in 0 W/m2
21:32 36.7 °F 35.1 °F 29.14 in NNE 4.0 mph 8.0 mph 94 % 0.00 in 0 W/m2
21:34 36.7 °F 35.1 °F 29.14 in NNE 5.0 mph 7.0 mph 94 % 0.00 in 0 W/m2
21:39 36.7 °F 35.1 °F 29.14 in NNE 6.0 mph 9.0 mph 94 % 0.00 in 0 W/m2
21:41 36.7 °F 35.1 °F 29.14 in NNE 7.0 mph 10.0 mph 94 % 0.00 in 0 W/m2
21:46 36.7 °F 34.8 °F 29.14 in NNE 6.0 mph 8.0 mph 93 % 0.00 in 0 W/m2
21:50 36.7 °F 34.8 °F 29.14 in North 4.0 mph 8.0 mph 93 % 0.00 in 0 W/m2
21:55 36.7 °F 34.8 °F 29.14 in NNE 7.0 mph 10.0 mph 93 % 0.00 in 0 W/m2
21:57 36.7 °F 34.8 °F 29.14 in NNE 7.0 mph 10.0 mph 93 % 0.00 in 0 W/m2
21:59 36.7 °F 34.8 °F 29.14 in NNE 7.0 mph 10.0 mph 93 % 0.00 in 0 W/m2
22:04 36.7 °F 35.1 °F 29.13 in NE 3.0 mph 7.0 mph 94 % 0.00 in 0 W/m2
22:08 36.7 °F 35.1 °F 29.13 in NNE 5.0 mph 7.0 mph 94 % 0.00 in 0 W/m2
22:13 36.7 °F 35.1 °F 29.13 in NNE 5.0 mph 8.0 mph 94 % 0.00 in 0 W/m2
22:15 36.7 °F 35.1 °F 29.13 in NNE 5.0 mph 10.0 mph 94 % 0.00 in 0 W/m2
22:20 36.7 °F 35.1 °F 29.13 in NNE 5.0 mph 9.0 mph 94 % 0.00 in 0 W/m2
22:25 36.9 °F 35.3 °F 29.13 in North 6.0 mph 10.0 mph 94 % 0.00 in 0 W/m2
22:26 36.9 °F 35.3 °F 29.13 in North 6.0 mph 10.0 mph 94 % 0.00 in 0 W/m2
22:31 36.9 °F 35.3 °F 29.12 in NNE 8.0 mph 11.0 mph 94 % 0.00 in 0 W/m2
22:33 36.9 °F 35.3 °F 29.13 in North 6.0 mph 10.0 mph 94 % 0.00 in 0 W/m2
22:34 36.9 °F 35.3 °F 29.12 in North 6.0 mph 10.0 mph 94 % 0.00 in 0 W/m2
22:39 36.9 °F 35.3 °F 29.13 in NNE 6.0 mph 9.0 mph 94 % 0.00 in 0 W/m2
22:44 36.9 °F 35.3 °F 29.12 in NE 4.0 mph 8.0 mph 94 % 0.00 in 0 W/m2
22:46 37.0 °F 35.5 °F 29.13 in NNE 5.0 mph 9.0 mph 94 % 0.00 in 0 W/m2
22:47 37.0 °F 35.5 °F 29.12 in NNE 5.0 mph 9.0 mph 94 % 0.00 in 0 W/m2
22:51 37.0 °F 35.5 °F 29.12 in NNE 6.0 mph 8.0 mph 94 % 0.00 in 0 W/m2
22:55 37.0 °F 35.5 °F 29.12 in North 7.0 mph 10.0 mph 94 % 0.00 in 0 W/m2
22:58 37.0 °F 35.5 °F 29.12 in NNE 5.0 mph 9.0 mph 94 % 0.00 in 0 W/m2
23:03 37.0 °F 35.2 °F 29.12 in North 7.0 mph 10.0 mph 93 % 0.00 in 0 W/m2
23:04 37.0 °F 35.2 °F 29.12 in North 7.0 mph 13.0 mph 93 % 0.00 in 0 W/m2
23:09 37.0 °F 35.2 °F 29.12 in NNE 6.0 mph 11.0 mph 93 % 0.00 in 0 W/m2
23:11 37.0 °F 35.2 °F 29.12 in North 6.0 mph 9.0 mph 93 % 0.00 in 0 W/m2
23:16 37.0 °F 35.2 °F 29.11 in North 7.0 mph 11.0 mph 93 % 0.00 in 0 W/m2
23:17 37.0 °F 35.2 °F 29.12 in North 6.0 mph 11.0 mph 93 % 0.00 in 0 W/m2
23:20 37.0 °F 35.2 °F 29.11 in North 7.0 mph 11.0 mph 93 % 0.00 in 0 W/m2
23:22 37.0 °F 35.2 °F 29.11 in North 7.0 mph 13.0 mph 93 % 0.00 in 0 W/m2
23:27 36.9 °F 35.0 °F 29.11 in North 7.0 mph 10.0 mph 93 % 0.00 in 0 W/m2
23:28 36.9 °F 35.0 °F 29.11 in North 7.0 mph 10.0 mph 93 % 0.00 in 0 W/m2
23:33 36.9 °F 35.0 °F 29.11 in North 7.0 mph 11.0 mph 93 % 0.00 in 0 W/m2
23:35 36.9 °F 35.0 °F 29.11 in NNE 7.0 mph 13.0 mph 93 % 0.00 in 0 W/m2
23:40 36.7 °F 35.1 °F 29.10 in NNE 6.0 mph 10.0 mph 94 % 0.00 in 0 W/m2
23:44 36.7 °F 35.1 °F 29.10 in NNE 6.0 mph 12.0 mph 94 % 0.00 in 0 W/m2
23:49 36.5 °F 34.9 °F 29.10 in NNE 7.0 mph 15.0 mph 94 % 0.00 in 0 W/m2
23:52 36.5 °F 34.9 °F 29.11 in NNE 8.0 mph 15.0 mph 94 % 0.00 in 0 W/m2
23:57 36.3 °F 34.8 °F 29.10 in NNE 7.0 mph 13.0 mph 94 % 0.01 in 0 W/m2
23:58 36.3 °F 34.8 °F 29.10 in NNE 7.0 mph 14.0 mph 94 % 0.01 in 0 W/m2
Delerius-Weather
Compliments of Weather Underground - 3 mb

Data updates at regular intervals.